createdAt,value
2023-04-13T00:01:12.011Z,7.50
2023-04-13T00:03:39.685Z,7.50
2023-04-13T00:06:11.016Z,7.50
2023-04-13T00:08:39.000Z,7.50
2023-04-13T00:11:07.947Z,7.50
2023-04-13T00:13:41.644Z,7.50
2023-04-13T00:16:10.477Z,7.40
2023-04-13T00:18:38.018Z,7.50
2023-04-13T00:21:06.065Z,7.50
2023-04-13T00:23:36.181Z,7.50
2023-04-13T00:26:03.853Z,7.50
2023-04-13T00:28:31.204Z,7.50
2023-04-13T00:30:59.609Z,7.40
2023-04-13T00:33:26.854Z,7.40
2023-04-13T00:35:53.979Z,7.40
2023-04-13T00:38:21.248Z,7.40
2023-04-13T00:40:48.337Z,7.50
2023-04-13T00:43:16.314Z,7.50
2023-04-13T00:45:44.169Z,7.40
2023-04-13T00:48:12.463Z,7.50
2023-04-13T00:50:40.724Z,7.50
2023-04-13T00:53:10.888Z,7.50
2023-04-13T00:55:40.645Z,7.50
2023-04-13T00:58:08.240Z,7.50
2023-04-13T01:00:39.462Z,7.50
2023-04-13T01:03:07.255Z,7.50
2023-04-13T01:05:50.735Z,7.50
2023-04-13T01:08:36.387Z,7.50
2023-04-13T01:11:10.647Z,7.50
2023-04-13T01:13:49.225Z,7.50
2023-04-13T01:16:16.827Z,7.50
2023-04-13T01:18:49.150Z,7.50
2023-04-13T01:21:19.644Z,7.50
2023-04-13T01:23:53.761Z,7.50
2023-04-13T01:26:22.854Z,7.50
2023-04-13T01:28:51.544Z,7.50
2023-04-13T01:31:20.452Z,7.40
2023-04-13T01:33:49.210Z,7.50
2023-04-13T01:36:17.117Z,7.50
2023-04-13T01:38:46.857Z,7.50
2023-04-13T01:41:15.643Z,7.60
2023-04-13T01:43:45.492Z,7.60
2023-04-13T01:46:14.850Z,7.60
2023-04-13T01:49:02.688Z,7.50
2023-04-13T01:51:45.280Z,7.50
2023-04-13T01:54:20.678Z,7.60
2023-04-13T01:56:49.070Z,7.50
2023-04-13T01:59:17.008Z,7.50
2023-04-13T02:01:45.258Z,7.50
2023-04-13T02:04:14.052Z,7.60
2023-04-13T02:06:43.345Z,7.50
2023-04-13T02:09:11.273Z,7.60
2023-04-13T02:11:38.564Z,7.60
2023-04-13T02:14:07.832Z,7.60
2023-04-13T02:16:35.544Z,7.60
2023-04-13T02:19:06.800Z,7.50
2023-04-13T02:21:35.271Z,7.50
2023-04-13T02:24:02.820Z,7.50
2023-04-13T02:26:30.240Z,7.50
2023-04-13T02:28:58.082Z,7.60
2023-04-13T02:31:25.672Z,7.60
2023-04-13T02:33:53.055Z,7.60
2023-04-13T02:36:21.765Z,7.50
2023-04-13T02:38:54.791Z,7.50
2023-04-13T02:41:28.495Z,7.50
2023-04-13T02:43:57.295Z,7.50
2023-04-13T02:46:30.002Z,7.50
2023-04-13T02:49:04.213Z,7.50
2023-04-13T02:51:37.309Z,7.50
2023-04-13T02:54:05.338Z,7.50
2023-04-13T02:56:38.319Z,7.50
2023-04-13T02:59:06.757Z,7.50
2023-04-13T03:01:33.988Z,7.50
2023-04-13T03:04:02.583Z,7.50
2023-04-13T03:06:31.368Z,7.50
2023-04-13T03:09:01.825Z,7.50
2023-04-13T03:11:37.375Z,7.50
2023-04-13T03:14:33.387Z,7.50
2023-04-13T03:17:06.945Z,7.50
2023-04-13T03:19:39.293Z,7.50
2023-04-13T03:22:07.026Z,7.50
2023-04-13T03:24:38.161Z,7.50
2023-04-13T03:27:08.668Z,7.50
2023-04-13T03:29:42.126Z,7.50
2023-04-13T03:32:13.965Z,7.50
2023-04-13T03:34:45.308Z,7.50
2023-04-13T03:37:14.354Z,7.50
2023-04-13T03:39:41.677Z,7.50
2023-04-13T03:42:13.123Z,7.50
2023-04-13T03:44:50.061Z,7.50
2023-04-13T03:47:17.367Z,7.40
2023-04-13T03:49:44.628Z,7.40
2023-04-13T03:52:11.795Z,7.40
2023-04-13T03:54:42.622Z,7.40
2023-04-13T03:57:09.830Z,7.40
2023-04-13T03:59:37.028Z,7.40
2023-04-13T04:02:07.296Z,7.40
2023-04-13T04:04:39.413Z,7.40
2023-04-13T04:07:07.634Z,7.40
2023-04-13T04:09:36.087Z,7.40
2023-04-13T04:12:03.985Z,7.40
2023-04-13T04:14:39.804Z,7.40
2023-04-13T04:17:16.961Z,7.50
2023-04-13T04:19:44.983Z,7.40
2023-04-13T04:22:14.078Z,7.40
2023-04-13T04:24:44.279Z,7.40
2023-04-13T04:27:14.530Z,7.40
2023-04-13T04:29:49.181Z,7.40
2023-04-13T04:32:37.090Z,7.40
2023-04-13T04:35:12.256Z,7.40
2023-04-13T04:37:46.194Z,7.50
2023-04-13T04:40:17.644Z,7.50
2023-04-13T04:42:44.856Z,7.50
2023-04-13T04:45:33.405Z,7.50
2023-04-13T04:48:04.259Z,7.50
2023-04-13T04:50:33.545Z,7.50
2023-04-13T04:53:12.388Z,7.50
2023-04-13T04:55:40.052Z,7.50
2023-04-13T04:58:11.194Z,7.50
2023-04-13T05:00:44.242Z,7.50
2023-04-13T05:03:15.895Z,7.40
2023-04-13T05:05:48.304Z,7.40
2023-04-13T05:08:22.459Z,7.40
2023-04-13T05:10:50.866Z,7.40
2023-04-13T05:13:19.706Z,7.40
2023-04-13T05:15:57.276Z,7.40
2023-04-13T05:18:25.750Z,7.40
2023-04-13T05:20:52.953Z,7.50
2023-04-13T05:23:20.153Z,7.50
2023-04-13T05:25:53.954Z,7.50
2023-04-13T05:28:22.326Z,7.50
2023-04-13T05:30:49.832Z,7.50
2023-04-13T05:33:18.175Z,7.40
2023-04-13T05:35:48.395Z,7.50
2023-04-13T05:38:16.093Z,7.50
2023-04-13T05:40:43.293Z,7.50
2023-04-13T05:43:11.223Z,7.40
2023-04-13T05:45:44.862Z,7.40
2023-04-13T05:48:14.973Z,7.50
2023-04-13T05:50:44.241Z,7.50
2023-04-13T05:53:12.855Z,7.40
2023-04-13T05:55:49.583Z,7.40
2023-04-13T05:58:19.035Z,7.40
2023-04-13T06:00:48.306Z,7.40
2023-04-13T06:03:22.820Z,7.50
2023-04-13T06:05:50.327Z,7.50
2023-04-13T06:08:17.717Z,7.50
2023-04-13T06:10:45.021Z,7.50
2023-04-13T06:13:12.662Z,7.50
2023-04-13T06:15:40.512Z,7.50
2023-04-13T06:18:07.818Z,7.50
2023-04-13T06:20:35.262Z,7.50
2023-04-13T06:23:02.442Z,7.50
2023-04-13T06:25:31.574Z,7.50
2023-04-13T06:28:02.534Z,7.50
2023-04-13T06:30:32.040Z,7.50
2023-04-13T06:33:04.374Z,7.50
2023-04-13T06:35:33.370Z,7.50
2023-04-13T06:38:01.806Z,7.50
2023-04-13T06:40:37.539Z,7.50
2023-04-13T06:43:13.424Z,7.50
2023-04-13T06:45:59.253Z,7.50
2023-04-13T06:48:29.056Z,7.50
2023-04-13T06:50:59.970Z,7.50
2023-04-13T06:53:29.086Z,7.50
2023-04-13T06:55:57.000Z,7.50
2023-04-13T06:58:25.077Z,7.50
2023-04-13T07:00:52.379Z,7.50
2023-04-13T07:03:20.383Z,7.50
2023-04-13T07:05:47.782Z,7.50
2023-04-13T07:08:19.316Z,7.60
2023-04-13T07:10:47.348Z,7.60
2023-04-13T07:13:23.302Z,7.60
2023-04-13T07:15:50.913Z,7.60
2023-04-13T07:18:18.372Z,7.60
2023-04-13T07:20:45.672Z,7.70
2023-04-13T07:23:14.781Z,7.70
2023-04-13T07:25:42.268Z,7.70
2023-04-13T07:28:17.045Z,7.70
2023-04-13T07:30:45.986Z,7.70
2023-04-13T07:33:14.585Z,7.70
2023-04-13T07:35:42.127Z,7.80
2023-04-13T07:38:11.982Z,7.80
2023-04-13T07:40:39.437Z,7.80
2023-04-13T07:43:10.025Z,7.80
2023-04-13T07:45:40.128Z,7.80
2023-04-13T07:48:07.910Z,7.80
2023-04-13T07:50:42.748Z,7.80
2023-04-13T07:53:13.768Z,7.80
2023-04-13T07:55:42.125Z,7.80
2023-04-13T07:58:09.891Z,7.80
2023-04-13T08:00:37.619Z,7.80
2023-04-13T08:03:07.238Z,7.80
2023-04-13T08:05:37.011Z,7.80
2023-04-13T08:08:04.661Z,7.80
2023-04-13T08:10:31.868Z,7.80
2023-04-13T08:13:03.254Z,7.80
2023-04-13T08:15:30.622Z,7.80
2023-04-13T08:17:59.878Z,7.80
2023-04-13T08:20:30.363Z,7.80
2023-04-13T08:22:59.563Z,7.80
2023-04-13T08:25:27.083Z,7.80
2023-04-13T08:27:54.984Z,7.80
2023-04-13T08:30:22.757Z,7.70
2023-04-13T08:32:58.622Z,7.70
2023-04-13T08:35:26.884Z,7.70
2023-04-13T08:37:54.639Z,7.70
2023-04-13T08:40:22.861Z,7.60
2023-04-13T08:42:56.628Z,7.60
2023-04-13T08:45:24.485Z,7.60
2023-04-13T08:47:52.055Z,7.60
2023-04-13T08:50:22.894Z,7.70
2023-04-13T08:52:54.379Z,7.70
2023-04-13T08:55:23.144Z,7.70
2023-04-13T08:57:53.389Z,7.70
2023-04-13T09:00:22.136Z,7.80
2023-04-13T09:03:04.971Z,7.80
2023-04-13T09:05:39.357Z,7.80
2023-04-13T09:08:08.326Z,7.80
2023-04-13T09:10:39.294Z,7.90
2023-04-13T09:13:08.757Z,7.80
2023-04-13T09:15:37.461Z,7.80
2023-04-13T09:18:12.745Z,7.90
2023-04-13T09:20:58.010Z,7.80
2023-04-13T09:23:25.756Z,7.80
2023-04-13T09:26:06.921Z,7.80
2023-04-13T09:28:34.418Z,7.80
2023-04-13T09:31:05.852Z,7.70
2023-04-13T09:33:47.396Z,7.80
2023-04-13T09:36:19.511Z,7.70
2023-04-13T09:38:56.343Z,7.80
2023-04-13T09:41:40.781Z,7.80
2023-04-13T09:44:20.879Z,7.90
2023-04-13T09:47:02.131Z,7.90
2023-04-13T09:49:41.968Z,7.90
2023-04-13T09:52:23.720Z,8.00
2023-04-13T09:54:55.537Z,8.00
2023-04-13T09:57:30.797Z,8.00
2023-04-13T10:00:01.543Z,8.00
2023-04-13T10:02:41.546Z,8.00
2023-04-13T10:05:14.279Z,8.00
2023-04-13T10:07:46.235Z,8.00
2023-04-13T10:10:13.783Z,8.00
2023-04-13T10:12:47.757Z,8.10
2023-04-13T10:15:24.140Z,8.10
2023-04-13T10:18:06.738Z,8.10
2023-04-13T10:20:34.784Z,8.20
2023-04-13T10:23:05.143Z,8.20
2023-04-13T10:25:34.081Z,8.40
2023-04-13T10:28:03.501Z,8.30
2023-04-13T10:30:31.042Z,8.40
2023-04-13T10:33:10.754Z,8.40
2023-04-13T10:35:40.798Z,8.50
2023-04-13T10:38:10.944Z,8.60
2023-04-13T10:40:48.584Z,8.70
2023-04-13T10:43:30.278Z,8.70
2023-04-13T10:46:13.737Z,8.70
2023-04-13T10:48:43.518Z,8.70
2023-04-13T10:51:10.960Z,8.70
2023-04-13T10:53:38.678Z,8.70
2023-04-13T10:56:16.892Z,8.60
2023-04-13T10:58:51.320Z,8.60
2023-04-13T11:01:19.045Z,8.60
2023-04-13T11:04:00.771Z,8.60
2023-04-13T11:06:38.738Z,8.60
2023-04-13T11:09:07.956Z,8.60
2023-04-13T11:11:37.474Z,8.70
2023-04-13T11:14:04.823Z,8.70
2023-04-13T11:16:32.015Z,8.70
2023-04-13T11:19:03.870Z,8.70
2023-04-13T11:21:35.763Z,8.70
2023-04-13T11:24:03.949Z,8.70
2023-04-13T11:26:33.982Z,8.70
2023-04-13T11:29:03.933Z,8.80
2023-04-13T11:31:39.769Z,8.80
2023-04-13T11:34:13.258Z,8.90
2023-04-13T11:36:45.966Z,8.90
2023-04-13T11:39:17.274Z,9.00
2023-04-13T11:41:45.115Z,9.00
2023-04-13T11:44:12.638Z,9.00
2023-04-13T11:46:39.948Z,9.00
2023-04-13T11:49:07.737Z,9.10
2023-04-13T11:51:35.261Z,9.10
2023-04-13T11:54:03.015Z,9.20
2023-04-13T11:56:31.291Z,9.20
2023-04-13T11:58:59.170Z,9.20
2023-04-13T12:01:32.235Z,9.10
2023-04-13T12:04:14.482Z,9.10
2023-04-13T12:06:46.217Z,9.00
2023-04-13T12:09:18.027Z,9.00
2023-04-13T12:11:54.289Z,9.00
2023-04-13T12:14:52.097Z,9.10
2023-04-13T12:17:38.013Z,9.10
2023-04-13T12:20:07.949Z,9.10
2023-04-13T12:22:51.505Z,9.20
2023-04-13T12:25:24.442Z,9.10
2023-04-13T12:27:55.252Z,9.10
2023-04-13T12:30:23.252Z,9.20
2023-04-13T12:32:55.982Z,9.20
2023-04-13T12:35:23.405Z,9.30
2023-04-13T12:37:50.673Z,9.40
2023-04-13T12:40:18.703Z,9.40
2023-04-13T12:42:47.125Z,9.50
2023-04-13T12:45:16.886Z,9.50
2023-04-13T12:47:44.389Z,9.50
2023-04-13T12:50:12.650Z,9.60
2023-04-13T12:52:43.176Z,9.60
2023-04-13T12:55:11.441Z,9.60
2023-04-13T12:57:39.972Z,9.70
2023-04-13T13:00:11.277Z,9.60
2023-04-13T13:02:38.860Z,9.60
2023-04-13T13:05:06.679Z,9.70
2023-04-13T13:07:33.922Z,9.70
2023-04-13T13:10:04.981Z,9.70
2023-04-13T13:12:37.167Z,9.70
2023-04-13T13:15:07.545Z,9.70
2023-04-13T13:17:35.068Z,9.80
2023-04-13T13:20:03.094Z,9.80
2023-04-13T13:22:32.183Z,9.90
2023-04-13T13:24:59.410Z,10.00
2023-04-13T13:29:57.487Z,10.20
2023-04-13T13:32:30.382Z,10.30
2023-04-13T13:34:58.218Z,10.40
2023-04-13T13:37:28.219Z,10.40
2023-04-13T13:39:55.769Z,10.50
2023-04-13T13:42:22.961Z,10.60
2023-04-13T13:44:50.550Z,10.70
2023-04-13T13:47:18.048Z,10.80
2023-04-13T13:49:49.843Z,10.90
2023-04-13T13:52:33.888Z,10.90
2023-04-13T13:55:03.943Z,10.90
2023-04-13T13:57:31.296Z,10.80
2023-04-13T13:59:58.544Z,10.80
2023-04-13T14:02:26.015Z,10.70
2023-04-13T14:04:53.164Z,10.60
2023-04-13T14:07:20.422Z,10.60
2023-04-13T14:09:47.622Z,10.50
2023-04-13T14:12:15.006Z,10.50
2023-04-13T14:14:42.185Z,10.40
2023-04-13T14:17:09.329Z,10.40
2023-04-13T14:19:36.552Z,10.40
2023-04-13T14:22:04.077Z,10.30
2023-04-13T14:24:31.561Z,10.30
2023-04-13T14:26:58.949Z,10.20
2023-04-13T14:29:26.394Z,10.20
2023-04-13T14:31:53.753Z,10.20
2023-04-13T14:34:21.021Z,10.20
2023-04-13T14:36:50.566Z,10.20
2023-04-13T14:39:20.161Z,10.20
2023-04-13T14:41:47.440Z,10.20
2023-04-13T14:44:14.728Z,10.20
2023-04-13T14:46:42.218Z,10.30
2023-04-13T14:49:09.933Z,10.30
2023-04-13T14:51:37.452Z,10.40
2023-04-13T14:54:04.923Z,10.30
2023-04-13T14:56:32.240Z,10.30
2023-04-13T14:59:00.071Z,10.40
2023-04-13T15:01:27.822Z,10.40
2023-04-13T15:03:55.886Z,10.50
2023-04-13T15:06:25.391Z,10.50
2023-04-13T15:08:52.878Z,10.50
2023-04-13T15:11:20.924Z,10.50
2023-04-13T15:13:48.482Z,10.40
2023-04-13T15:16:16.412Z,10.40
2023-04-13T15:18:43.731Z,10.50
2023-04-13T15:21:11.176Z,10.50
2023-04-13T15:23:38.529Z,10.60
2023-04-13T15:26:06.273Z,10.70
2023-04-13T15:28:33.577Z,10.80
2023-04-13T15:31:01.192Z,11.00
2023-04-13T15:33:28.424Z,11.00
2023-04-13T15:35:55.873Z,11.20
2023-04-13T15:38:23.313Z,11.30
2023-04-13T15:40:50.817Z,11.30
2023-04-13T15:43:18.349Z,11.30
2023-04-13T15:45:47.151Z,11.30
2023-04-13T15:48:16.118Z,11.20
2023-04-13T15:50:43.440Z,11.20
2023-04-13T15:53:11.121Z,11.20
2023-04-13T15:55:40.300Z,11.10
2023-04-13T15:58:07.955Z,11.10
2023-04-13T16:00:35.594Z,11.10
2023-04-13T16:03:03.363Z,11.00
2023-04-13T16:05:31.743Z,11.00
2023-04-13T16:07:59.065Z,11.00
2023-04-13T16:10:27.400Z,10.90
2023-04-13T16:12:55.176Z,10.80
2023-04-13T16:15:23.149Z,10.80
2023-04-13T16:17:50.597Z,10.70
2023-04-13T16:20:18.522Z,10.70
2023-04-13T16:22:49.103Z,10.60
2023-04-13T16:25:17.970Z,10.50
2023-04-13T16:27:48.042Z,10.50
2023-04-13T16:30:17.591Z,10.40
2023-04-13T16:32:46.537Z,10.40
2023-04-13T16:35:13.904Z,10.50
2023-04-13T16:37:42.623Z,10.50
2023-04-13T16:40:11.215Z,10.30
2023-04-13T16:42:40.624Z,10.30
2023-04-13T16:45:12.923Z,10.30
2023-04-13T16:47:42.412Z,10.30
2023-04-13T16:50:11.320Z,10.30
2023-04-13T16:52:41.806Z,10.30
2023-04-13T16:55:14.313Z,10.30
2023-04-13T16:57:43.321Z,10.30
2023-04-13T17:00:11.528Z,10.30
2023-04-13T17:02:40.677Z,10.30
2023-04-13T17:05:12.700Z,10.20
2023-04-13T17:07:41.692Z,10.30
2023-04-13T17:10:09.823Z,10.30
2023-04-13T17:12:37.218Z,10.20
2023-04-13T17:15:07.851Z,10.20
2023-04-13T17:17:35.464Z,10.10
2023-04-13T17:20:02.710Z,10.10
2023-04-13T17:22:29.893Z,10.10
2023-04-13T17:24:57.203Z,10.10
2023-04-13T17:27:24.351Z,10.10
2023-04-13T17:29:51.456Z,10.10
2023-04-13T17:32:21.857Z,10.10
2023-04-13T17:34:50.224Z,10.10
2023-04-13T17:37:18.076Z,10.10
2023-04-13T17:39:50.713Z,10.10
2023-04-13T17:42:18.707Z,10.10
2023-04-13T17:44:45.889Z,10.00
2023-04-13T17:47:14.208Z,10.00
2023-04-13T17:49:41.500Z,10.00
2023-04-13T17:52:09.041Z,10.00
2023-04-13T17:54:36.436Z,10.00
2023-04-13T17:57:07.089Z,9.90
2023-04-13T17:59:34.365Z,9.90
2023-04-13T18:02:01.732Z,9.90
2023-04-13T18:04:31.624Z,9.90
2023-04-13T18:06:59.021Z,9.90
2023-04-13T18:09:28.183Z,9.90
2023-04-13T18:11:55.432Z,9.80
2023-04-13T18:14:22.718Z,9.90
2023-04-13T18:16:49.872Z,9.80
2023-04-13T18:19:17.121Z,9.80
2023-04-13T18:21:44.294Z,9.70
2023-04-13T18:24:11.612Z,9.70
2023-04-13T18:26:39.861Z,9.70
2023-04-13T18:29:07.512Z,9.70
2023-04-13T18:31:34.611Z,9.70
2023-04-13T18:34:02.329Z,9.70
2023-04-13T18:36:29.564Z,9.70
2023-04-13T18:38:56.719Z,9.70
2023-04-13T18:41:23.865Z,9.70
2023-04-13T18:43:51.175Z,9.60
2023-04-13T18:46:18.525Z,9.60
2023-04-13T18:48:45.788Z,9.60
2023-04-13T18:51:12.972Z,9.60
2023-04-13T18:53:40.167Z,9.60
2023-04-13T18:56:07.413Z,9.60
2023-04-13T18:58:34.504Z,9.50
2023-04-13T19:01:01.718Z,9.50
2023-04-13T19:03:29.427Z,9.50
2023-04-13T19:05:56.776Z,9.50
2023-04-13T19:08:23.947Z,9.50
2023-04-13T19:10:52.009Z,9.50
2023-04-13T19:13:19.222Z,9.50
2023-04-13T19:15:46.779Z,9.40
2023-04-13T19:18:14.305Z,9.40
2023-04-13T19:20:41.594Z,9.40
2023-04-13T19:23:08.780Z,9.40
2023-04-13T19:25:36.077Z,9.40
2023-04-13T19:28:03.542Z,9.30
2023-04-13T19:30:30.784Z,9.30
2023-04-13T19:32:58.782Z,9.20
2023-04-13T19:35:26.381Z,9.10
2023-04-13T19:37:53.780Z,9.10
2023-04-13T19:40:23.168Z,9.10
2023-04-13T19:42:50.398Z,9.10
2023-04-13T19:45:17.814Z,9.00
2023-04-13T19:47:45.788Z,9.00
2023-04-13T19:50:15.419Z,9.00
2023-04-13T19:52:43.225Z,8.90
2023-04-13T19:55:11.101Z,8.90
2023-04-13T19:57:42.343Z,8.80
2023-04-13T20:00:20.618Z,8.80
2023-04-13T20:02:50.130Z,8.70
2023-04-13T20:05:19.426Z,8.70
2023-04-13T20:07:47.728Z,8.70
2023-04-13T20:10:15.365Z,8.70
2023-04-13T20:12:43.137Z,8.70
2023-04-13T20:15:10.465Z,8.70
2023-04-13T20:17:37.757Z,8.70
2023-04-13T20:20:06.717Z,8.60
2023-04-13T20:22:33.810Z,8.60
2023-04-13T20:25:01.020Z,8.60
2023-04-13T20:27:29.800Z,8.60
2023-04-13T20:29:57.296Z,8.50
2023-04-13T20:32:24.462Z,8.50
2023-04-13T20:34:55.571Z,8.50
2023-04-13T20:37:22.763Z,8.40
2023-04-13T20:39:50.541Z,8.40
2023-04-13T20:42:19.217Z,8.30
2023-04-13T20:44:58.770Z,8.30
2023-04-13T20:47:31.275Z,8.30
2023-04-13T20:50:00.020Z,8.30
2023-04-13T20:52:29.978Z,8.30
2023-04-13T20:54:57.305Z,8.20
2023-04-13T20:57:24.545Z,8.20
2023-04-13T20:59:52.254Z,8.20
2023-04-13T21:02:19.622Z,8.20
2023-04-13T21:04:47.304Z,8.20
2023-04-13T21:07:15.520Z,8.30
2023-04-13T21:09:43.149Z,8.30
2023-04-13T21:12:10.318Z,8.30
2023-04-13T21:14:37.444Z,8.40
2023-04-13T21:17:04.774Z,8.40
2023-04-13T21:19:32.697Z,8.50
2023-04-13T21:21:59.871Z,8.50
2023-04-13T21:24:27.010Z,8.50
2023-04-13T21:26:54.100Z,8.50
2023-04-13T21:29:21.350Z,8.60
2023-04-13T21:31:48.534Z,8.60
2023-04-13T21:34:17.266Z,8.60
2023-04-13T21:39:16.081Z,8.60
2023-04-13T21:41:43.235Z,8.50
2023-04-13T21:44:26.000Z,8.50
2023-04-13T21:46:56.104Z,8.50
2023-04-13T21:49:23.204Z,8.50
2023-04-13T21:51:50.359Z,8.50
2023-04-13T21:54:17.395Z,8.50
2023-04-13T21:56:44.590Z,8.50
2023-04-13T21:59:11.791Z,8.50
2023-04-13T22:01:39.149Z,8.50
2023-04-13T22:04:06.720Z,8.40
2023-04-13T22:06:33.998Z,8.50
2023-04-13T22:09:01.478Z,8.50
2023-04-13T22:11:28.877Z,8.40
2023-04-13T22:13:56.035Z,8.50
2023-04-13T22:16:23.173Z,8.50
2023-04-13T22:18:50.292Z,8.50
2023-04-13T22:21:17.565Z,8.50
2023-04-13T22:23:44.719Z,8.50
2023-04-13T22:26:11.936Z,8.50
2023-04-13T22:28:39.160Z,8.60
2023-04-13T22:31:08.178Z,8.60
2023-04-13T22:33:36.408Z,8.60
2023-04-13T22:36:05.730Z,8.60
2023-04-13T22:38:33.125Z,8.60
2023-04-13T22:41:06.979Z,8.60
2023-04-13T22:43:34.390Z,8.60
2023-04-13T22:46:01.588Z,8.60
2023-04-13T22:48:30.030Z,8.60
2023-04-13T22:50:58.519Z,8.60
2023-04-13T22:53:26.194Z,8.60
2023-04-13T22:55:54.104Z,8.60
2023-04-13T22:58:21.481Z,8.60
2023-04-13T23:00:48.592Z,8.60
2023-04-13T23:03:15.865Z,8.60
2023-04-13T23:05:43.121Z,8.70
2023-04-13T23:08:10.663Z,8.70
2023-04-13T23:10:37.805Z,8.70
2023-04-13T23:13:05.162Z,8.70
2023-04-13T23:15:32.340Z,8.70
2023-04-13T23:18:02.519Z,8.70
2023-04-13T23:20:30.063Z,8.70
2023-04-13T23:22:57.226Z,8.60
2023-04-13T23:25:24.672Z,8.60
2023-04-13T23:27:51.939Z,8.60
2023-04-13T23:30:20.266Z,8.50
2023-04-13T23:32:47.421Z,8.50
2023-04-13T23:35:14.577Z,8.50
2023-04-13T23:37:43.284Z,8.50
2023-04-13T23:40:10.974Z,8.50
2023-04-13T23:42:38.074Z,8.50
2023-04-13T23:45:05.679Z,8.50
2023-04-13T23:47:32.855Z,8.40
2023-04-13T23:50:00.179Z,8.40
2023-04-13T23:52:27.546Z,8.40
2023-04-13T23:54:54.766Z,8.40
2023-04-13T23:57:22.560Z,8.40
2023-04-13T23:59:55.005Z,8.40
